sensor_id;sensor_type;location;lat;lon;timestamp;pressure;altitude;pressure_sealevel;temperature;humidity
33404;BME280;19751;40.274;18.268;2022-07-04T00:00:11;100954.06;;;27.96;90.78
33404;BME280;19751;40.274;18.268;2022-07-04T00:02:41;100954.34;;;27.95;90.91
33404;BME280;19751;40.274;18.268;2022-07-04T00:05:08;100958.94;;;27.86;91.09
33404;BME280;19751;40.274;18.268;2022-07-04T00:07:42;100964.78;;;27.84;91.51
33404;BME280;19751;40.274;18.268;2022-07-04T00:10:09;100961.19;;;27.84;91.47
33404;BME280;19751;40.274;18.268;2022-07-04T00:12:35;100957.06;;;27.81;91.18
33404;BME280;19751;40.274;18.268;2022-07-04T00:15:03;100959.53;;;27.83;91.30
33404;BME280;19751;40.274;18.268;2022-07-04T00:17:29;100957.88;;;27.82;91.24
33404;BME280;19751;40.274;18.268;2022-07-04T00:19:55;100950.13;;;27.84;90.94
33404;BME280;19751;40.274;18.268;2022-07-04T00:22:20;100953.16;;;27.82;91.14
33404;BME280;19751;40.274;18.268;2022-07-04T00:24:46;100957.38;;;27.80;90.99
33404;BME280;19751;40.274;18.268;2022-07-04T00:27:11;100956.56;;;27.79;91.04
33404;BME280;19751;40.274;18.268;2022-07-04T00:29:37;100958.47;;;27.79;91.26
33404;BME280;19751;40.274;18.268;2022-07-04T00:32:03;100956.84;;;27.78;91.25
33404;BME280;19751;40.274;18.268;2022-07-04T00:34:29;100952.13;;;27.78;91.20
33404;BME280;19751;40.274;18.268;2022-07-04T00:36:54;100957.88;;;27.82;91.08
33404;BME280;19751;40.274;18.268;2022-07-04T00:39:20;100953.47;;;27.81;91.01
33404;BME280;19751;40.274;18.268;2022-07-04T00:41:46;100949.06;;;27.80;90.98
33404;BME280;19751;40.274;18.268;2022-07-04T00:44:12;100944.94;;;27.77;91.05
33404;BME280;19751;40.274;18.268;2022-07-04T00:46:42;100949.72;;;27.71;91.05
33404;BME280;19751;40.274;18.268;2022-07-04T00:49:09;100950.63;;;27.67;91.38
33404;BME280;19751;40.274;18.268;2022-07-04T00:51:37;100954.47;;;27.66;91.14
33404;BME280;19751;40.274;18.268;2022-07-04T00:54:03;100965.13;;;27.59;91.54
33404;BME280;19751;40.274;18.268;2022-07-04T00:56:29;100956.59;;;27.55;91.73
33404;BME280;19751;40.274;18.268;2022-07-04T00:58:55;100961.31;;;27.55;91.71
33404;BME280;19751;40.274;18.268;2022-07-04T01:01:21;100956.59;;;27.55;91.74
33404;BME280;19751;40.274;18.268;2022-07-04T01:03:46;100952.69;;;27.56;91.55
33404;BME280;19751;40.274;18.268;2022-07-04T01:06:13;100951.56;;;27.57;91.43
33404;BME280;19751;40.274;18.268;2022-07-04T01:08:41;100952.78;;;27.51;91.46
33404;BME280;19751;40.274;18.268;2022-07-04T01:11:08;100958.88;;;27.29;92.14
33404;BME280;19751;40.274;18.268;2022-07-04T01:13:34;100956.53;;;27.17;93.01
33404;BME280;19751;40.274;18.268;2022-07-04T01:15:59;100949.13;;;27.13;93.45
33404;BME280;19751;40.274;18.268;2022-07-04T01:18:25;100952.19;;;27.11;93.14
33404;BME280;19751;40.274;18.268;2022-07-04T01:20:51;100954.13;;;27.11;93.02
33404;BME280;19751;40.274;18.268;2022-07-04T01:23:17;100948.53;;;27.16;92.54
33404;BME280;19751;40.274;18.268;2022-07-04T01:25:43;100945.41;;;27.22;92.09
33404;BME280;19751;40.274;18.268;2022-07-04T01:28:09;100943.69;;;27.26;91.55
33404;BME280;19751;40.274;18.268;2022-07-04T01:30:36;100946.97;;;27.29;91.04
33404;BME280;19751;40.274;18.268;2022-07-04T01:33:02;100943.38;;;27.28;90.99
33404;BME280;19751;40.274;18.268;2022-07-04T01:35:28;100937.59;;;27.30;90.82
33404;BME280;19751;40.274;18.268;2022-07-04T01:37:53;100941.16;;;27.30;90.53
33404;BME280;19751;40.274;18.268;2022-07-04T01:40:19;100940.63;;;27.28;90.50
33404;BME280;19751;40.274;18.268;2022-07-04T01:42:45;100946.81;;;27.20;90.49
33404;BME280;19751;40.274;18.268;2022-07-04T01:45:11;100942.88;;;27.02;91.39
33404;BME280;19751;40.274;18.268;2022-07-04T01:47:37;100948.88;;;26.85;92.24
33404;BME280;19751;40.274;18.268;2022-07-04T01:50:04;100945.75;;;26.68;93.64
33404;BME280;19751;40.274;18.268;2022-07-04T01:52:30;100944.50;;;26.55;94.65
33404;BME280;19751;40.274;18.268;2022-07-04T01:54:55;100944.31;;;26.46;95.31
33404;BME280;19751;40.274;18.268;2022-07-04T01:57:21;100942.63;;;26.45;95.31
33404;BME280;19751;40.274;18.268;2022-07-04T01:59:46;100942.06;;;26.48;95.31
33404;BME280;19751;40.274;18.268;2022-07-04T02:02:31;100933.56;;;26.40;95.58
33404;BME280;19751;40.274;18.268;2022-07-04T02:04:56;100937.50;;;26.28;95.87
33404;BME280;19751;40.274;18.268;2022-07-04T02:07:22;100932.84;;;26.24;96.36
33404;BME280;19751;40.274;18.268;2022-07-04T02:09:47;100927.63;;;26.22;96.55
33404;BME280;19751;40.274;18.268;2022-07-04T02:12:13;100918.22;;;26.23;96.46
33404;BME280;19751;40.274;18.268;2022-07-04T02:14:57;100928.97;;;26.30;96.03
33404;BME280;19751;40.274;18.268;2022-07-04T02:17:22;100926.63;;;26.42;95.53
33404;BME280;19751;40.274;18.268;2022-07-04T02:19:48;100922.97;;;26.52;94.59
33404;BME280;19751;40.274;18.268;2022-07-04T02:22:14;100925.41;;;26.59;93.83
33404;BME280;19751;40.274;18.268;2022-07-04T02:24:41;100924.78;;;26.62;93.34
33404;BME280;19751;40.274;18.268;2022-07-04T02:27:07;100925.63;;;26.62;93.05
33404;BME280;19751;40.274;18.268;2022-07-04T02:29:34;100929.44;;;26.66;92.50
33404;BME280;19751;40.274;18.268;2022-07-04T02:31:59;100927.72;;;26.70;92.58
33404;BME280;19751;40.274;18.268;2022-07-04T02:34:25;100930.06;;;26.58;91.88
33404;BME280;19751;40.274;18.268;2022-07-04T02:36:50;100916.47;;;26.38;93.49
33404;BME280;19751;40.274;18.268;2022-07-04T02:39:16;100922.06;;;26.27;94.44
33404;BME280;19751;40.274;18.268;2022-07-04T02:41:41;100927.97;;;26.16;95.21
33404;BME280;19751;40.274;18.268;2022-07-04T02:44:07;100923.06;;;26.08;95.85
33404;BME280;19751;40.274;18.268;2022-07-04T02:46:33;100923.81;;;26.18;95.89
33404;BME280;19751;40.274;18.268;2022-07-04T02:49:00;100928.72;;;26.26;95.20
33404;BME280;19751;40.274;18.268;2022-07-04T02:51:26;100921.19;;;26.32;94.63
33404;BME280;19751;40.274;18.268;2022-07-04T02:53:51;100926.47;;;26.28;94.33
33404;BME280;19751;40.274;18.268;2022-07-04T02:56:17;100921.28;;;26.22;94.11
33404;BME280;19751;40.274;18.268;2022-07-04T02:58:42;100928.25;;;26.14;94.17
33404;BME280;19751;40.274;18.268;2022-07-04T03:01:08;100923.41;;;26.01;94.48
33404;BME280;19751;40.274;18.268;2022-07-04T03:03:34;100923.47;;;25.91;94.81
33404;BME280;19751;40.274;18.268;2022-07-04T03:06:00;100925.13;;;25.92;94.85
33404;BME280;19751;40.274;18.268;2022-07-04T03:08:26;100920.66;;;25.96;94.39
33404;BME280;19751;40.274;18.268;2022-07-04T03:10:52;100919.56;;;25.97;94.12
33404;BME280;19751;40.274;18.268;2022-07-04T03:13:18;100919.38;;;25.88;93.74
33404;BME280;19751;40.274;18.268;2022-07-04T03:15:44;100922.69;;;25.85;93.41
33404;BME280;19751;40.274;18.268;2022-07-04T03:18:09;100931.03;;;25.80;93.22
33404;BME280;19751;40.274;18.268;2022-07-04T03:20:35;100927.72;;;25.73;93.49
33404;BME280;19751;40.274;18.268;2022-07-04T03:23:00;100925.25;;;25.66;93.56
33404;BME280;19751;40.274;18.268;2022-07-04T03:25:26;100940.47;;;25.64;93.71
33404;BME280;19751;40.274;18.268;2022-07-04T03:27:52;100927.50;;;25.64;93.22
33404;BME280;19751;40.274;18.268;2022-07-04T03:30:17;100945.13;;;25.68;93.17
33404;BME280;19751;40.274;18.268;2022-07-04T03:32:43;100937.97;;;25.67;92.61
33404;BME280;19751;40.274;18.268;2022-07-04T03:35:08;100940.19;;;25.65;92.64
33404;BME280;19751;40.274;18.268;2022-07-04T03:37:34;100939.09;;;25.61;92.66
33404;BME280;19751;40.274;18.268;2022-07-04T03:39:59;100944.00;;;25.69;91.90
33404;BME280;19751;40.274;18.268;2022-07-04T03:42:25;100935.44;;;25.71;91.36
33404;BME280;19751;40.274;18.268;2022-07-04T03:44:50;100937.38;;;25.70;91.23
33404;BME280;19751;40.274;18.268;2022-07-04T03:47:16;100929.66;;;25.72;90.52
33404;BME280;19751;40.274;18.268;2022-07-04T03:49:42;100929.66;;;25.72;90.25
33404;BME280;19751;40.274;18.268;2022-07-04T03:52:07;100922.19;;;25.73;89.78
33404;BME280;19751;40.274;18.268;2022-07-04T03:54:32;100929.34;;;25.74;89.45
33404;BME280;19751;40.274;18.268;2022-07-04T03:56:58;100923.00;;;25.78;88.89
33404;BME280;19751;40.274;18.268;2022-07-04T03:59:23;100922.94;;;25.89;88.17
33404;BME280;19751;40.274;18.268;2022-07-04T04:01:49;100935.53;;;26.00;87.62
33404;BME280;19751;40.274;18.268;2022-07-04T04:04:14;100924.44;;;26.10;86.75
33404;BME280;19751;40.274;18.268;2022-07-04T04:06:58;100932.09;;;26.18;85.90
33404;BME280;19751;40.274;18.268;2022-07-04T04:09:24;100932.59;;;26.25;85.66
33404;BME280;19751;40.274;18.268;2022-07-04T04:11:53;100941.88;;;26.35;85.22
33404;BME280;19751;40.274;18.268;2022-07-04T04:14:19;100930.22;;;26.43;84.40
33404;BME280;19751;40.274;18.268;2022-07-04T04:16:44;100936.53;;;26.48;84.20
33404;BME280;19751;40.274;18.268;2022-07-04T04:19:10;100931.81;;;26.49;83.64
33404;BME280;19751;40.274;18.268;2022-07-04T04:21:36;100932.94;;;26.48;82.97
33404;BME280;19751;40.274;18.268;2022-07-04T04:24:02;100935.72;;;26.48;82.46
33404;BME280;19751;40.274;18.268;2022-07-04T04:26:28;100934.03;;;26.52;82.05
33404;BME280;19751;40.274;18.268;2022-07-04T04:28:54;100942.25;;;26.57;80.84
33404;BME280;19751;40.274;18.268;2022-07-04T04:31:19;100944.13;;;26.62;80.61
33404;BME280;19751;40.274;18.268;2022-07-04T04:33:45;100934.44;;;26.64;80.12
33404;BME280;19751;40.274;18.268;2022-07-04T04:36:11;100938.84;;;26.65;79.50
33404;BME280;19751;40.274;18.268;2022-07-04T04:38:37;100944.31;;;26.70;79.53
33404;BME280;19751;40.274;18.268;2022-07-04T04:41:03;100948.78;;;26.66;79.16
33404;BME280;19751;40.274;18.268;2022-07-04T04:43:29;100957.31;;;26.70;79.48
33404;BME280;19751;40.274;18.268;2022-07-04T04:45:54;100955.34;;;26.75;79.24
33404;BME280;19751;40.274;18.268;2022-07-04T04:48:20;100944.22;;;26.81;79.47
33404;BME280;19751;40.274;18.268;2022-07-04T04:50:45;100953.03;;;26.83;78.99
33404;BME280;19751;40.274;18.268;2022-07-04T04:53:11;100949.44;;;26.82;78.94
33404;BME280;19751;40.274;18.268;2022-07-04T04:55:37;100950.50;;;26.86;79.14
33404;BME280;19751;40.274;18.268;2022-07-04T04:58:02;100960.69;;;26.91;79.31
33404;BME280;19751;40.274;18.268;2022-07-04T05:00:28;100953.19;;;26.91;79.55
33404;BME280;19751;40.274;18.268;2022-07-04T05:02:54;100960.09;;;26.94;79.86
33404;BME280;19751;40.274;18.268;2022-07-04T05:05:19;100958.69;;;26.96;79.70
33404;BME280;19751;40.274;18.268;2022-07-04T05:07:45;100963.34;;;27.01;80.26
33404;BME280;19751;40.274;18.268;2022-07-04T05:10:10;100957.50;;;27.02;80.11
33404;BME280;19751;40.274;18.268;2022-07-04T05:12:36;100957.44;;;27.08;80.23
33404;BME280;19751;40.274;18.268;2022-07-04T05:15:02;100961.28;;;27.12;79.95
33404;BME280;19751;40.274;18.268;2022-07-04T05:17:27;100959.59;;;27.16;79.93
33404;BME280;19751;40.274;18.268;2022-07-04T05:19:53;100957.06;;;27.19;79.89
33404;BME280;19751;40.274;18.268;2022-07-04T05:22:18;100960.59;;;27.25;80.12
33404;BME280;19751;40.274;18.268;2022-07-04T05:24:44;100960.28;;;27.26;80.50
33404;BME280;19751;40.274;18.268;2022-07-04T05:27:10;100961.34;;;27.31;80.71
33404;BME280;19751;40.274;18.268;2022-07-04T05:29:35;100955.75;;;27.36;80.89
33404;BME280;19751;40.274;18.268;2022-07-04T05:32:01;100957.84;;;27.44;80.75
33404;BME280;19751;40.274;18.268;2022-07-04T05:34:27;100961.34;;;27.49;80.86
33404;BME280;19751;40.274;18.268;2022-07-04T05:36:55;100960.75;;;27.52;80.96
33404;BME280;19751;40.274;18.268;2022-07-04T05:39:24;100958.53;;;27.55;80.46
33404;BME280;19751;40.274;18.268;2022-07-04T05:41:50;100956.28;;;27.57;80.33
33404;BME280;19751;40.274;18.268;2022-07-04T05:44:15;100960.91;;;27.61;79.78
33404;BME280;19751;40.274;18.268;2022-07-04T05:46:41;100950.41;;;27.63;79.62
33404;BME280;19751;40.274;18.268;2022-07-04T05:49:07;100950.84;;;27.70;79.46
33404;BME280;19751;40.274;18.268;2022-07-04T05:51:33;100952.13;;;27.78;79.30
33404;BME280;19751;40.274;18.268;2022-07-04T05:53:59;100951.22;;;27.83;78.63
33404;BME280;19751;40.274;18.268;2022-07-04T05:56:24;100959.47;;;27.88;78.02
33404;BME280;19751;40.274;18.268;2022-07-04T05:58:50;100960.22;;;27.93;77.43
33404;BME280;19751;40.274;18.268;2022-07-04T06:01:16;100952.34;;;28.00;76.78
33404;BME280;19751;40.274;18.268;2022-07-04T06:03:41;100955.84;;;28.06;76.29
33404;BME280;19751;40.274;18.268;2022-07-04T06:06:06;100959.66;;;28.10;75.51
33404;BME280;19751;40.274;18.268;2022-07-04T06:08:32;100951.56;;;28.14;74.07
33404;BME280;19751;40.274;18.268;2022-07-04T06:10:58;100962.28;;;28.20;73.53
33404;BME280;19751;40.274;18.268;2022-07-04T06:13:24;100956.94;;;28.24;72.30
33404;BME280;19751;40.274;18.268;2022-07-04T06:15:49;100952.44;;;28.28;71.39
33404;BME280;19751;40.274;18.268;2022-07-04T06:18:15;100955.94;;;28.34;69.79
33404;BME280;19751;40.274;18.268;2022-07-04T06:20:41;100955.06;;;28.38;68.98
33404;BME280;19751;40.274;18.268;2022-07-04T06:23:07;100943.56;;;28.45;68.14
33404;BME280;19751;40.274;18.268;2022-07-04T06:25:33;100948.72;;;28.52;67.35
33404;BME280;19751;40.274;18.268;2022-07-04T06:28:00;100949.16;;;28.59;66.82
33404;BME280;19751;40.274;18.268;2022-07-04T06:30:26;100954.28;;;28.65;66.52
33404;BME280;19751;40.274;18.268;2022-07-04T06:32:54;100950.00;;;28.73;65.91
33404;BME280;19751;40.274;18.268;2022-07-04T06:35:22;100957.91;;;28.80;65.32
33404;BME280;19751;40.274;18.268;2022-07-04T06:38:07;100955.56;;;28.87;64.76
33404;BME280;19751;40.274;18.268;2022-07-04T06:40:33;100954.13;;;28.89;63.41
33404;BME280;19751;40.274;18.268;2022-07-04T06:42:59;100950.19;;;28.90;63.31
33404;BME280;19751;40.274;18.268;2022-07-04T06:45:24;100953.50;;;28.92;63.84
33404;BME280;19751;40.274;18.268;2022-07-04T06:47:50;100951.78;;;28.96;64.23
33404;BME280;19751;40.274;18.268;2022-07-04T06:50:16;100948.41;;;29.00;63.84
33404;BME280;19751;40.274;18.268;2022-07-04T06:52:43;100952.81;;;29.01;63.99
33404;BME280;19751;40.274;18.268;2022-07-04T06:55:08;100958.06;;;29.02;63.83
33404;BME280;19751;40.274;18.268;2022-07-04T06:57:34;100956.31;;;29.06;63.55
33404;BME280;19751;40.274;18.268;2022-07-04T07:00:00;100953.75;;;29.10;62.89
33404;BME280;19751;40.274;18.268;2022-07-04T07:02:26;100948.09;;;29.15;63.02
33404;BME280;19751;40.274;18.268;2022-07-04T07:04:54;100949.44;;;29.17;63.53
33404;BME280;19751;40.274;18.268;2022-07-04T07:07:20;100952.41;;;29.21;63.61
33404;BME280;19751;40.274;18.268;2022-07-04T07:09:46;100953.72;;;29.23;63.28
33404;BME280;19751;40.274;18.268;2022-07-04T07:12:11;100950.66;;;29.25;63.00
33404;BME280;19751;40.274;18.268;2022-07-04T07:14:37;100959.47;;;29.27;62.46
33404;BME280;19751;40.274;18.268;2022-07-04T07:17:03;100949.19;;;29.28;61.52
33404;BME280;19751;40.274;18.268;2022-07-04T07:19:28;100951.06;;;29.32;61.74
33404;BME280;19751;40.274;18.268;2022-07-04T07:21:54;100948.59;;;29.31;62.58
33404;BME280;19751;40.274;18.268;2022-07-04T07:24:19;100942.09;;;29.35;62.04
33404;BME280;19751;40.274;18.268;2022-07-04T07:26:46;100939.31;;;29.35;61.52
33404;BME280;19751;40.274;18.268;2022-07-04T07:29:11;100939.53;;;29.39;62.64
33404;BME280;19751;40.274;18.268;2022-07-04T07:31:38;100929.25;;;29.39;62.03
33404;BME280;19751;40.274;18.268;2022-07-04T07:34:03;100921.94;;;29.43;61.74
33404;BME280;19751;40.274;18.268;2022-07-04T07:36:28;100929.66;;;29.46;62.63
33404;BME280;19751;40.274;18.268;2022-07-04T07:38:54;100924.91;;;29.47;63.06
33404;BME280;19751;40.274;18.268;2022-07-04T07:41:21;100932.44;;;29.46;60.99
33404;BME280;19751;40.274;18.268;2022-07-04T07:43:46;100919.38;;;29.47;61.13
33404;BME280;19751;40.274;18.268;2022-07-04T07:46:13;100922.03;;;29.52;61.53
33404;BME280;19751;40.274;18.268;2022-07-04T07:48:38;100920.59;;;29.55;60.98
33404;BME280;19751;40.274;18.268;2022-07-04T07:51:03;100925.56;;;29.58;60.16
33404;BME280;19751;40.274;18.268;2022-07-04T07:53:29;100929.34;;;29.62;60.71
33404;BME280;19751;40.274;18.268;2022-07-04T07:55:54;100922.84;;;29.66;60.76
33404;BME280;19751;40.274;18.268;2022-07-04T07:58:20;100930.84;;;29.68;60.74
33404;BME280;19751;40.274;18.268;2022-07-04T08:00:46;100922.22;;;29.69;60.47
33404;BME280;19751;40.274;18.268;2022-07-04T08:03:12;100913.06;;;29.69;57.30
33404;BME280;19751;40.274;18.268;2022-07-04T08:05:56;100917.66;;;29.73;57.86
33404;BME280;19751;40.274;18.268;2022-07-04T08:08:22;100916.03;;;29.72;59.22
33404;BME280;19751;40.274;18.268;2022-07-04T08:10:49;100920.97;;;29.76;53.95
33404;BME280;19751;40.274;18.268;2022-07-04T08:13:14;100922.59;;;29.77;52.56
33404;BME280;19751;40.274;18.268;2022-07-04T08:15:40;100917.03;;;29.77;55.52
33404;BME280;19751;40.274;18.268;2022-07-04T08:18:05;100925.25;;;29.82;55.13
33404;BME280;19751;40.274;18.268;2022-07-04T08:20:31;100929.03;;;29.86;53.76
33404;BME280;19751;40.274;18.268;2022-07-04T08:22:57;100922.84;;;29.89;54.30
33404;BME280;19751;40.274;18.268;2022-07-04T08:25:22;100914.91;;;29.96;51.89
33404;BME280;19751;40.274;18.268;2022-07-04T08:27:48;100925.59;;;30.03;52.06
33404;BME280;19751;40.274;18.268;2022-07-04T08:30:14;100919.09;;;30.07;51.09
33404;BME280;19751;40.274;18.268;2022-07-04T08:32:39;100919.25;;;30.11;51.14
33404;BME280;19751;40.274;18.268;2022-07-04T08:35:06;100915.03;;;30.13;50.86
33404;BME280;19751;40.274;18.268;2022-07-04T08:37:31;100923.91;;;30.15;50.39
33404;BME280;19751;40.274;18.268;2022-07-04T08:39:57;100924.59;;;30.21;51.29
33404;BME280;19751;40.274;18.268;2022-07-04T08:42:23;100922.00;;;30.25;50.54
33404;BME280;19751;40.274;18.268;2022-07-04T08:44:50;100925.78;;;30.29;50.66
33404;BME280;19751;40.274;18.268;2022-07-04T08:47:21;100925.66;;;30.34;50.55
33404;BME280;19751;40.274;18.268;2022-07-04T08:50:07;100927.13;;;30.40;50.79
33404;BME280;19751;40.274;18.268;2022-07-04T08:52:43;100924.25;;;30.45;49.06
33404;BME280;19751;40.274;18.268;2022-07-04T08:55:12;100916.22;;;30.43;47.57
33404;BME280;19751;40.274;18.268;2022-07-04T08:57:57;100927.03;;;30.45;47.52
33404;BME280;19751;40.274;18.268;2022-07-04T09:00:41;100925.53;;;30.48;48.41
33404;BME280;19751;40.274;18.268;2022-07-04T09:03:08;100913.47;;;30.52;48.35
33404;BME280;19751;40.274;18.268;2022-07-04T09:05:34;100924.31;;;30.62;47.22
33404;BME280;19751;40.274;18.268;2022-07-04T09:08:01;100924.19;;;30.67;47.64
33404;BME280;19751;40.274;18.268;2022-07-04T09:10:27;100917.16;;;30.70;47.48
33404;BME280;19751;40.274;18.268;2022-07-04T09:12:52;100915.72;;;30.73;47.36
33404;BME280;19751;40.274;18.268;2022-07-04T09:15:18;100925.06;;;30.77;47.21
33404;BME280;19751;40.274;18.268;2022-07-04T09:17:45;100932.75;;;30.80;47.16
33404;BME280;19751;40.274;18.268;2022-07-04T09:22:38;100923.94;;;30.78;46.98
33404;BME280;19751;40.274;18.268;2022-07-04T09:25:05;100922.97;;;30.82;47.03
33404;BME280;19751;40.274;18.268;2022-07-04T09:27:35;100918.72;;;30.85;47.57
33404;BME280;19751;40.274;18.268;2022-07-04T09:30:02;100918.72;;;30.85;48.87
33404;BME280;19751;40.274;18.268;2022-07-04T09:32:38;100921.50;;;30.85;48.10
33404;BME280;19751;40.274;18.268;2022-07-04T09:35:09;100915.13;;;30.84;47.55
33404;BME280;19751;40.274;18.268;2022-07-04T09:37:37;100923.31;;;30.89;46.63
33404;BME280;19751;40.274;18.268;2022-07-04T09:40:05;100918.25;;;30.91;46.43
33404;BME280;19751;40.274;18.268;2022-07-04T09:42:35;100914.84;;;30.94;48.56
33404;BME280;19751;40.274;18.268;2022-07-04T09:45:07;100912.88;;;30.95;49.37
33404;BME280;19751;40.274;18.268;2022-07-04T09:47:32;100923.50;;;31.02;48.73
33404;BME280;19751;40.274;18.268;2022-07-04T09:50:11;100914.03;;;31.03;47.93
33404;BME280;19751;40.274;18.268;2022-07-04T09:52:49;100906.81;;;31.02;46.73
33404;BME280;19751;40.274;18.268;2022-07-04T09:57:51;100898.81;;;31.00;46.92
33404;BME280;19751;40.274;18.268;2022-07-04T10:00:20;100895.06;;;31.05;47.56
33404;BME280;19751;40.274;18.268;2022-07-04T10:02:45;100899.34;;;31.11;46.84
33404;BME280;19751;40.274;18.268;2022-07-04T10:05:11;100892.28;;;31.13;46.83
33404;BME280;19751;40.274;18.268;2022-07-04T10:07:40;100898.38;;;31.15;46.60
33404;BME280;19751;40.274;18.268;2022-07-04T10:10:30;100901.31;;;31.19;46.57
33404;BME280;19751;40.274;18.268;2022-07-04T10:13:09;100900.66;;;31.22;45.80
33404;BME280;19751;40.274;18.268;2022-07-04T10:15:37;100919.16;;;31.27;46.00
33404;BME280;19751;40.274;18.268;2022-07-04T10:18:03;100886.91;;;31.26;46.03
33404;BME280;19751;40.274;18.268;2022-07-04T10:20:29;100889.91;;;31.29;46.35
33404;BME280;19751;40.274;18.268;2022-07-04T10:22:56;100893.81;;;31.28;46.48
33404;BME280;19751;40.274;18.268;2022-07-04T10:25:22;100901.53;;;31.31;47.98
33404;BME280;19751;40.274;18.268;2022-07-04T10:27:48;100892.97;;;31.28;46.12
33404;BME280;19751;40.274;18.268;2022-07-04T10:30:22;100890.72;;;31.30;45.80
33404;BME280;19751;40.274;18.268;2022-07-04T10:32:48;100888.59;;;31.35;46.19
33404;BME280;19751;40.274;18.268;2022-07-04T10:35:15;100900.03;;;31.34;49.05
33404;BME280;19751;40.274;18.268;2022-07-04T10:38:04;100896.44;;;31.33;51.06
33404;BME280;19751;40.274;18.268;2022-07-04T10:54:01;100887.13;;;31.47;49.64
33404;BME280;19751;40.274;18.268;2022-07-04T10:58:54;100889.25;;;31.50;50.83
33404;BME280;19751;40.274;18.268;2022-07-04T11:01:20;100895.63;;;31.50;48.36
33404;BME280;19751;40.274;18.268;2022-07-04T11:03:46;100877.78;;;31.51;49.36
33404;BME280;19751;40.274;18.268;2022-07-04T11:06:50;100875.16;;;31.55;50.26
33404;BME280;19751;40.274;18.268;2022-07-04T11:09:23;100870.94;;;31.57;50.49
33404;BME280;19751;40.274;18.268;2022-07-04T11:12:05;100866.16;;;31.66;50.19
33404;BME280;19751;40.274;18.268;2022-07-04T11:19:45;100859.75;;;31.83;50.01
33404;BME280;19751;40.274;18.268;2022-07-04T11:22:10;100851.75;;;31.82;49.22
33404;BME280;19751;40.274;18.268;2022-07-04T11:24:38;100848.44;;;31.80;48.90
33404;BME280;19751;40.274;18.268;2022-07-04T11:27:07;100852.38;;;31.79;49.30
33404;BME280;19751;40.274;18.268;2022-07-04T11:29:33;100852.38;;;31.79;48.86
33404;BME280;19751;40.274;18.268;2022-07-04T11:32:00;100849.47;;;31.84;48.08
33404;BME280;19751;40.274;18.268;2022-07-04T11:34:31;100842.41;;;31.86;47.02
33404;BME280;19751;40.274;18.268;2022-07-04T11:36:57;100846.03;;;31.87;47.11
33404;BME280;19751;40.274;18.268;2022-07-04T11:39:23;100839.28;;;31.88;46.40
33404;BME280;19751;40.274;18.268;2022-07-04T11:41:53;100842.59;;;31.90;45.43
33404;BME280;19751;40.274;18.268;2022-07-04T11:44:39;100840.44;;;31.96;43.71
33404;BME280;19751;40.274;18.268;2022-07-04T11:50:02;100837.78;;;32.08;44.55
33404;BME280;19751;40.274;18.268;2022-07-04T11:52:30;100845.13;;;32.12;44.38
33404;BME280;19751;40.274;18.268;2022-07-04T11:54:56;100845.63;;;32.14;44.30
33404;BME280;19751;40.274;18.268;2022-07-04T11:57:25;100838.25;;;32.18;44.09
33404;BME280;19751;40.274;18.268;2022-07-04T12:00:01;100834.28;;;32.28;43.91
33404;BME280;19751;40.274;18.268;2022-07-04T12:02:29;100833.72;;;32.35;44.48
33404;BME280;19751;40.274;18.268;2022-07-04T12:04:56;100839.50;;;32.38;43.79
33404;BME280;19751;40.274;18.268;2022-07-04T12:07:24;100838.03;;;32.41;42.39
33404;BME280;19751;40.274;18.268;2022-07-04T12:09:51;100834.06;;;32.42;43.25
33404;BME280;19751;40.274;18.268;2022-07-04T12:12:18;100832.25;;;32.46;41.50
33404;BME280;19751;40.274;18.268;2022-07-04T12:14:57;100832.41;;;32.50;42.06
33404;BME280;19751;40.274;18.268;2022-07-04T12:17:29;100821.41;;;32.53;42.75
33404;BME280;19751;40.274;18.268;2022-07-04T12:19:57;100832.69;;;32.57;42.20
33404;BME280;19751;40.274;18.268;2022-07-04T12:22:37;100824.94;;;32.62;41.52
33404;BME280;19751;40.274;18.268;2022-07-04T12:25:05;100824.63;;;32.64;42.16
33404;BME280;19751;40.274;18.268;2022-07-04T12:27:33;100826.25;;;32.65;40.75
33404;BME280;19751;40.274;18.268;2022-07-04T12:29:59;100824.09;;;32.71;40.37
33404;BME280;19751;40.274;18.268;2022-07-04T12:32:43;100815.19;;;32.77;41.19
33404;BME280;19751;40.274;18.268;2022-07-04T12:35:09;100811.69;;;32.89;40.55
33404;BME280;19751;40.274;18.268;2022-07-04T12:37:35;100807.72;;;32.90;40.95
33404;BME280;19751;40.274;18.268;2022-07-04T12:40:07;100807.09;;;32.93;40.61
33404;BME280;19751;40.274;18.268;2022-07-04T12:42:33;100799.47;;;33.02;40.15
33404;BME280;19751;40.274;18.268;2022-07-04T12:45:05;100801.03;;;33.12;40.66
33404;BME280;19751;40.274;18.268;2022-07-04T12:47:33;100811.03;;;33.13;41.24
33404;BME280;19751;40.274;18.268;2022-07-04T12:49:59;100806.75;;;33.15;40.46
33404;BME280;19751;40.274;18.268;2022-07-04T12:52:27;100800.16;;;33.20;40.24
33404;BME280;19751;40.274;18.268;2022-07-04T12:55:07;100808.31;;;33.25;40.41
33404;BME280;19751;40.274;18.268;2022-07-04T12:57:35;100801.91;;;33.25;40.70
33404;BME280;19751;40.274;18.268;2022-07-04T13:00:00;100801.91;;;33.25;38.89
33404;BME280;19751;40.274;18.268;2022-07-04T13:02:26;100803.81;;;33.33;38.14
33404;BME280;19751;40.274;18.268;2022-07-04T13:04:51;100801.63;;;33.38;36.06
33404;BME280;19751;40.274;18.268;2022-07-04T13:07:17;100784.69;;;33.44;35.84
33404;BME280;19751;40.274;18.268;2022-07-04T13:09:44;100789.59;;;33.47;34.88